Time;durP1;ratioP1;P1;durP2;ratioP2;P2;SDS_P1;SDS_P2;PMS_P1;PMS_P2;Temp;Humidity;BMP_temperature;BMP_pressure;BME280_temperature;BME280_humidity;BME280_pressure;Samples;Min_cycle;Max_cycle;Signal;HPM_P1;HPM_P2
2022/01/07 00:01:05;;;;;;;;;10.80;10.00;;;;;4.28;41.23;99220.66;6083084;28;96831;-70
2022/01/07 00:04:09;;;;;;;;;11.00;10.00;;;;;4.23;41.24;99239.03;6090760;28;98452;-71
2022/01/07 00:07:12;;;;;;;;;12.00;12.00;;;;;4.05;41.51;99228.59;6091828;28;98137;-70
2022/01/07 00:10:20;;;;;;;;;12.60;11.60;;;;;4.03;41.53;99238.59;6089902;28;97326;-70
2022/01/07 00:13:24;;;;;;;;;13.00;11.00;;;;;4.03;41.77;99248.44;6093549;28;97443;-68
2022/01/07 00:16:28;;;;;;;;;10.40;10.40;;;;;3.87;41.81;99236.78;6090673;28;97767;-67
2022/01/07 00:19:31;;;;;;;;;11.00;10.00;;;;;3.93;41.71;99240.63;6093031;28;97557;-70
2022/01/07 00:22:34;;;;;;;;;12.50;11.75;;;;;3.98;41.79;99250.78;6092635;28;96596;-68
2022/01/07 00:25:39;;;;;;;;;13.60;12.60;;;;;3.94;41.76;99255.63;6091211;28;96718;-70
2022/01/07 00:28:42;;;;;;;;;13.00;10.75;;;;;3.94;41.88;99250.28;6081351;28;97117;-67
2022/01/07 00:31:45;;;;;;;;;12.00;11.00;;;;;3.91;41.91;99247.94;6089612;28;96852;-71
2022/01/07 00:34:49;;;;;;;;;15.00;11.00;;;;;3.87;42.24;99254.63;6091691;28;96885;-68
2022/01/07 00:37:52;;;;;;;;;11.25;9.00;;;;;3.91;42.03;99255.94;6090430;28;97427;-69
2022/01/07 00:40:57;;;;;;;;;9.40;9.40;;;;;3.87;42.14;99266.13;6074850;28;96774;-68
2022/01/07 00:44:01;;;;;;;;;11.00;11.00;;;;;3.87;42.26;99265.31;6091949;28;96525;-69
2022/01/07 00:47:05;;;;;;;;;16.00;13.60;;;;;3.88;42.19;99270.47;6091908;28;96434;-68
2022/01/07 00:50:09;;;;;;;;;12.00;11.00;;;;;3.92;42.37;99262.97;6088323;28;96662;-67
2022/01/07 00:53:13;;;;;;;;;13.00;12.00;;;;;3.90;42.35;99262.31;6089884;28;96608;-68
2022/01/07 00:56:17;;;;;;;;;12.00;12.00;;;;;3.89;42.38;99266.81;6091347;28;96473;-68
2022/01/07 00:59:21;;;;;;;;;12.00;11.60;;;;;3.86;42.31;99277.78;6100770;28;97657;-67
2022/01/07 01:02:24;;;;;;;;;14.40;12.00;;;;;3.86;42.26;99277.78;6107292;28;96868;-67
2022/01/07 01:05:28;;;;;;;;;15.00;13.00;;;;;3.79;42.63;99284.00;6091778;28;97518;-70
2022/01/07 01:08:32;;;;;;;;;14.75;13.00;;;;;3.87;42.26;99276.81;6080856;28;97312;-69
2022/01/07 01:11:36;;;;;;;;;14.00;13.00;;;;;3.90;42.36;99275.66;6082798;28;96442;-70
2022/01/07 01:14:40;;;;;;;;;13.00;11.00;;;;;3.81;42.48;99277.47;6102614;28;97569;-67
2022/01/07 01:17:44;;;;;;;;;16.00;15.00;;;;;3.83;42.67;99287.97;6090447;28;97265;-69
2022/01/07 01:20:47;;;;;;;;;11.60;11.60;;;;;3.62;42.95;99285.00;6091503;28;96632;-69
2022/01/07 01:23:51;;;;;;;;;12.40;11.00;;;;;3.61;42.88;99286.00;6090670;28;98272;-69
2022/01/07 01:26:55;;;;;;;;;12.00;10.00;;;;;3.58;43.15;99284.50;6090276;28;96938;-69
2022/01/07 01:30:00;;;;;;;;;13.33;12.00;;;;;3.62;43.05;99280.50;6089973;28;96948;-69
2022/01/07 01:33:04;;;;;;;;;15.00;13.00;;;;;3.65;43.07;99272.19;6090508;28;97581;-70
2022/01/07 01:36:09;;;;;;;;;12.60;12.00;;;;;3.58;43.02;99273.84;6090775;28;97374;-70
2022/01/07 01:39:13;;;;;;;;;15.00;12.00;;;;;3.66;43.00;99273.84;6077412;28;97998;-69
2022/01/07 01:42:17;;;;;;;;;13.00;12.00;;;;;3.75;42.68;99277.34;6085756;28;97900;-67
2022/01/07 01:45:22;;;;;;;;;11.00;10.00;;;;;3.77;43.02;99278.81;6089171;28;98353;-70
2022/01/07 01:48:26;;;;;;;;;11.00;10.00;;;;;3.74;42.79;99281.00;6091991;28;96573;-67
2022/01/07 01:51:29;;;;;;;;;11.00;10.00;;;;;3.70;43.06;99277.84;6101568;28;97646;-70
2022/01/07 01:54:32;;;;;;;;;12.00;11.00;;;;;3.68;43.04;99273.66;6070897;28;97311;-68
2022/01/07 01:57:37;;;;;;;;;14.00;11.40;;;;;3.65;43.02;99269.50;6089121;28;97448;-68
2022/01/07 02:00:40;;;;;;;;;12.00;10.00;;;;;3.59;43.11;99278.19;6072163;28;96544;-70
2022/01/07 02:03:44;;;;;;;;;11.75;11.75;;;;;3.60;42.81;99271.84;6087855;28;99480;-70
2022/01/07 02:06:48;;;;;;;;;13.00;11.60;;;;;3.59;42.88;99256.00;6089446;28;96596;-69
2022/01/07 02:09:51;;;;;;;;;11.00;9.50;;;;;3.68;42.69;99255.00;6090638;28;96674;-67
2022/01/07 02:12:56;;;;;;;;;12.25;11.00;;;;;3.66;42.85;99247.19;6088728;28;97745;-67
2022/01/07 02:16:00;;;;;;;;;12.00;12.00;;;;;3.65;42.88;99248.19;6090087;28;97351;-70
2022/01/07 02:19:03;;;;;;;;;12.00;11.00;;;;;3.71;42.45;99246.69;6080375;28;97694;-68
2022/01/07 02:22:08;;;;;;;;;12.00;11.00;;;;;3.68;42.80;99247.84;6074387;28;97429;-70
2022/01/07 02:25:12;;;;;;;;;14.60;12.00;;;;;3.74;42.60;99252.50;6090078;28;96596;-69
2022/01/07 02:28:16;;;;;;;;;13.00;12.00;;;;;3.71;42.59;99249.34;6089416;28;96423;-67
2022/01/07 02:31:19;;;;;;;;;15.00;13.40;;;;;3.68;42.58;99242.50;6090117;28;97526;-70
2022/01/07 02:34:22;;;;;;;;;11.40;10.00;;;;;3.65;42.67;99244.69;6090294;28;96771;-70
2022/01/07 02:37:27;;;;;;;;;11.20;10.00;;;;;3.69;42.25;99246.84;6090745;28;97466;-68
2022/01/07 02:40:30;;;;;;;;;14.00;12.00;;;;;3.72;42.27;99241.16;6090797;28;96573;-69
2022/01/07 02:43:33;;;;;;;;;13.00;10.00;;;;;3.72;42.27;99241.16;6090007;28;96808;-69
2022/01/07 02:46:37;;;;;;;;;13.00;12.00;;;;;3.73;42.19;99242.81;6073527;28;96900;-68
2022/01/07 02:49:40;;;;;;;;;11.25;11.25;;;;;3.78;42.42;99244.97;6089137;28;96933;-71
2022/01/07 02:52:45;;;;;;;;;12.00;12.00;;;;;3.71;42.52;99252.00;6090325;28;99053;-69
2022/01/07 02:55:50;;;;;;;;;15.00;13.20;;;;;3.69;42.68;99251.34;6089323;28;96793;-68
2022/01/07 02:58:53;;;;;;;;;12.00;11.00;;;;;3.63;42.29;99252.00;6090418;28;96597;-71
2022/01/07 03:01:56;;;;;;;;;14.80;11.80;;;;;3.65;42.59;99247.34;6089158;28;99569;-71
2022/01/07 03:05:00;;;;;;;;;12.00;11.00;;;;;3.63;42.42;99252.00;6088674;28;100207;-71
2022/01/07 03:08:05;;;;;;;;;10.60;10.60;;;;;3.67;42.58;99258.66;6089781;28;97424;-69
2022/01/07 03:11:09;;;;;;;;;13.00;10.40;;;;;3.56;42.58;99251.03;6091038;28;96428;-71
2022/01/07 03:14:12;;;;;;;;;11.80;9.20;;;;;3.60;42.63;99260.34;6091657;28;96567;-69
2022/01/07 03:17:15;;;;;;;;;13.60;11.00;;;;;3.54;42.39;99256.53;6093032;28;97433;-70
2022/01/07 03:20:20;;;;;;;;;11.50;10.00;;;;;3.50;42.50;99247.19;6090802;28;96833;-71
2022/01/07 03:23:25;;;;;;;;;14.00;11.00;;;;;3.42;42.77;99256.00;6091126;28;96912;-70
2022/01/07 03:26:28;;;;;;;;;11.50;11.00;;;;;3.46;42.29;99256.53;6086468;28;96537;-68
2022/01/07 03:29:32;;;;;;;;;9.00;8.50;;;;;3.35;42.51;99254.19;6087198;28;98300;-68
2022/01/07 03:32:37;;;;;;;;;10.60;9.60;;;;;3.37;42.57;99262.88;6087998;28;96547;-67
2022/01/07 03:35:41;;;;;;;;;10.00;9.00;;;;;3.41;42.86;99262.38;6086851;28;96835;-70
2022/01/07 03:38:45;;;;;;;;;10.00;10.00;;;;;3.41;42.66;99256.19;6087350;28;96616;-68
2022/01/07 03:41:49;;;;;;;;;11.20;11.20;;;;;3.38;42.46;99257.34;6089289;28;96716;-68
2022/01/07 03:44:52;;;;;;;;;12.00;11.00;;;;;3.37;42.80;99260.22;6104517;28;96547;-68
2022/01/07 03:47:56;;;;;;;;;13.00;10.00;;;;;3.40;42.37;99251.88;6092893;28;96376;-68
2022/01/07 03:50:59;;;;;;;;;10.00;8.75;;;;;3.41;42.23;99246.38;6090939;28;97471;-70
2022/01/07 03:54:04;;;;;;;;;13.00;10.40;;;;;3.46;42.16;99245.88;6077776;28;96820;-69
2022/01/07 03:57:07;;;;;;;;;11.40;10.40;;;;;3.46;41.96;99251.22;6090797;28;96453;-68
2022/01/07 04:00:13;;;;;;;;;10.40;10.00;;;;;3.49;42.08;99246.38;6091869;28;97461;-68
2022/01/07 04:03:19;;;;;;;;;9.80;9.00;;;;;3.50;42.13;99244.53;6079077;28;96350;-69
2022/01/07 04:06:22;;;;;;;;;8.00;7.00;;;;;3.51;41.79;99248.88;6104838;28;97506;-69
2022/01/07 04:09:26;;;;;;;;;8.60;8.60;;;;;3.56;41.61;99253.69;6085253;28;98555;-69
2022/01/07 04:12:30;;;;;;;;;9.60;8.20;;;;;3.48;42.16;99254.53;6087752;28;97763;-69
2022/01/07 04:15:34;;;;;;;;;11.00;9.00;;;;;3.52;42.00;99253.19;6091709;28;96511;-71
2022/01/07 04:18:37;;;;;;;;;11.00;9.40;;;;;3.47;42.30;99252.84;6092028;28;96758;-68
2022/01/07 04:21:40;;;;;;;;;12.00;10.40;;;;;3.38;42.09;99248.53;6103997;28;97707;-68
2022/01/07 04:24:45;;;;;;;;;10.50;9.00;;;;;3.35;42.29;99247.03;6101249;28;96591;-68
2022/01/07 04:27:50;;;;;;;;;11.00;10.00;;;;;3.36;42.12;99246.06;6089894;28;97972;-70
2022/01/07 04:30:53;;;;;;;;;10.00;8.00;;;;;3.38;41.72;99243.19;6091567;28;96550;-68
2022/01/07 04:33:57;;;;;;;;;11.00;8.50;;;;;3.34;41.82;99240.03;6092496;28;97222;-70
2022/01/07 04:37:00;;;;;;;;;10.40;9.00;;;;;3.11;41.84;99204.41;6093034;28;96856;-68
2022/01/07 04:40:06;;;;;;;;;9.00;9.00;;;;;3.11;41.94;99216.91;6091394;28;99493;-69
2022/01/07 04:43:10;;;;;;;;;11.00;10.00;;;;;3.24;41.84;99243.88;6093258;28;96348;-70
2022/01/07 04:46:13;;;;;;;;;12.80;11.00;;;;;3.25;41.56;99245.53;6092779;28;96624;-68
2022/01/07 04:49:17;;;;;;;;;11.00;10.00;;;;;3.13;41.96;99253.00;6092171;28;96440;-69
2022/01/07 04:52:21;;;;;;;;;8.00;7.00;;;;;3.16;41.82;99258.03;6090495;28;96948;-70
2022/01/07 04:55:29;;;;;;;;;9.00;8.00;;;;;3.17;41.74;99256.19;6089788;28;97117;-71
2022/01/07 04:58:32;;;;;;;;;8.40;7.40;;;;;3.16;41.61;99259.84;6092330;28;98005;-67
2022/01/07 05:01:35;;;;;;;;;9.40;8.00;;;;;3.09;41.56;99261.50;6082906;28;96671;-71
2022/01/07 05:04:39;;;;;;;;;10.80;8.00;;;;;3.04;41.60;99246.84;6089190;28;96828;-70
2022/01/07 05:07:42;;;;;;;;;9.00;8.00;;;;;3.02;41.75;99269.34;6092595;28;96915;-70
2022/01/07 05:10:47;;;;;;;;;12.00;10.60;;;;;3.00;41.83;99258.84;6092454;28;96571;-72
2022/01/07 05:13:50;;;;;;;;;8.00;8.00;;;;;3.10;41.72;99256.03;6074813;28;100507;-70
2022/01/07 05:16:53;;;;;;;;;10.40;9.40;;;;;3.08;41.63;99267.84;6091438;28;98050;-69
2022/01/07 05:19:57;;;;;;;;;13.00;11.00;;;;;3.09;41.47;99266.81;6091410;28;96573;-69
2022/01/07 05:23:00;;;;;;;;;9.00;9.00;;;;;3.11;41.33;99273.66;6086690;28;97457;-71
2022/01/07 05:26:07;;;;;;;;;9.40;9.00;;;;;3.22;41.04;99265.38;6082078;28;98356;-69
2022/01/07 05:29:10;;;;;;;;;10.00;9.00;;;;;3.23;41.03;99266.16;6084829;28;96612;-69
2022/01/07 05:32:14;;;;;;;;;12.00;10.00;;;;;3.25;40.96;99256.19;6091229;28;97089;-71
2022/01/07 05:35:17;;;;;;;;;10.00;9.00;;;;;3.29;40.78;99253.03;6075477;28;98676;-71
2022/01/07 05:38:20;;;;;;;;;10.00;8.40;;;;;3.32;40.37;99259.88;6092648;28;96995;-69
2022/01/07 05:41:25;;;;;;;;;11.00;10.00;;;;;3.17;40.40;99232.22;6089566;28;97534;-69
2022/01/07 05:44:29;;;;;;;;;11.00;8.00;;;;;3.36;40.26;99259.38;6098703;28;96700;-68
2022/01/07 05:47:32;;;;;;;;;8.00;7.60;;;;;3.40;39.67;99263.38;6077239;28;97452;-69
2022/01/07 05:50:36;;;;;;;;;8.20;7.80;;;;;3.38;40.01;99257.34;6091219;28;96555;-70
2022/01/07 05:53:39;;;;;;;;;8.00;8.00;;;;;3.26;39.88;99239.22;6090914;28;96597;-68
2022/01/07 05:56:44;;;;;;;;;10.00;8.50;;;;;3.34;39.35;99261.34;6089727;28;99504;-64
2022/01/07 05:59:47;;;;;;;;;9.00;8.00;;;;;3.36;39.35;99267.38;6083455;28;100045;-70
2022/01/07 06:02:51;;;;;;;;;9.00;8.00;;;;;3.35;39.17;99259.53;6078151;28;97645;-67
2022/01/07 06:05:54;;;;;;;;;7.50;7.00;;;;;3.36;39.02;99270.03;6090921;28;97031;-70
2022/01/07 06:08:57;;;;;;;;;8.00;8.00;;;;;3.38;39.00;99267.19;6065736;28;98576;-70
2022/01/07 06:12:02;;;;;;;;;7.00;7.00;;;;;3.40;38.99;99259.88;6077051;28;99706;-69
2022/01/07 06:15:07;;;;;;;;;9.00;8.00;;;;;3.27;39.28;99230.22;6088097;28;96664;-67
2022/01/07 06:18:10;;;;;;;;;10.00;8.00;;;;;3.41;39.11;99253.53;6082227;28;96422;-68
2022/01/07 06:21:14;;;;;;;;;9.00;9.00;;;;;3.39;38.92;99251.03;6081888;28;96747;-70
2022/01/07 06:24:17;;;;;;;;;10.80;7.80;;;;;3.39;39.41;99244.88;6084308;28;97915;-68
2022/01/07 06:27:22;;;;;;;;;8.00;8.00;;;;;3.34;39.33;99245.38;6087471;28;96975;-68
2022/01/07 06:30:25;;;;;;;;;11.00;10.00;;;;;3.38;38.75;99237.88;6092382;28;97471;-68
2022/01/07 06:33:28;;;;;;;;;8.60;7.40;;;;;3.40;38.70;99242.03;6087473;28;96726;-66
2022/01/07 06:36:32;;;;;;;;;11.00;9.00;;;;;3.41;38.51;99237.53;6101848;28;97657;-70
2022/01/07 06:39:35;;;;;;;;;7.67;7.67;;;;;3.39;38.24;99236.88;6099482;28;97961;-70
2022/01/07 06:42:40;;;;;;;;;9.00;8.00;;;;;3.37;38.34;99237.03;6069527;28;99524;-70
2022/01/07 06:45:44;;;;;;;;;10.00;8.00;;;;;3.31;38.11;99227.06;6086430;28;97794;-68
2022/01/07 06:48:47;;;;;;;;;10.00;10.00;;;;;3.42;38.12;99229.38;6086470;28;97110;-67
2022/01/07 06:51:51;;;;;;;;;11.75;10.25;;;;;3.42;38.42;99231.22;6073158;28;99584;-67
2022/01/07 06:54:54;;;;;;;;;13.00;10.00;;;;;3.45;38.84;99234.38;6084773;28;97849;-70
2022/01/07 06:57:59;;;;;;;;;12.25;11.25;;;;;3.47;38.98;99228.84;6087612;28;96656;-70
2022/01/07 07:01:03;;;;;;;;;13.00;12.00;;;;;3.47;38.93;99226.19;6086134;28;97391;-70
2022/01/07 07:04:07;;;;;;;;;14.25;13.00;;;;;3.39;38.97;99212.88;6085555;28;97217;-68
2022/01/07 07:07:10;;;;;;;;;14.00;12.60;;;;;3.57;39.19;99215.38;6084570;28;98560;-70
2022/01/07 07:10:13;;;;;;;;;13.00;12.60;;;;;3.56;38.83;99222.53;6087965;28;97155;-69
2022/01/07 07:13:18;;;;;;;;;13.60;12.00;;;;;3.60;39.01;99221.19;6087820;28;97265;-68
2022/01/07 07:16:21;;;;;;;;;12.50;11.00;;;;;3.62;39.43;99221.84;6087995;28;96601;-69
2022/01/07 07:19:25;;;;;;;;;12.80;11.00;;;;;3.70;38.59;99221.84;6087982;28;97404;-71
2022/01/07 07:22:28;;;;;;;;;16.00;13.80;;;;;3.81;38.32;99216.13;6069173;28;98522;-69
2022/01/07 07:25:31;;;;;;;;;14.00;13.40;;;;;4.23;38.04;99215.84;6081595;28;97084;-68
2022/01/07 07:28:37;;;;;;;;;12.00;12.00;;;;;6.21;35.49;99222.78;6088002;28;98088;-66
2022/01/07 07:31:44;;;;;;;;;14.40;13.00;;;;;8.53;31.78;99230.03;6088791;28;97257;-70
2022/01/07 07:35:00;;;;;;;;;11.50;11.00;;;;;10.69;28.27;99223.88;6082551;28;98366;-69
2022/01/07 07:38:03;;;;;;;;;10.00;8.00;;;;;12.47;25.50;99227.88;6073976;28;97298;-67
2022/01/07 07:41:08;;;;;;;;;12.00;11.20;;;;;13.81;24.25;99238.31;6075965;28;96755;-71
2022/01/07 07:44:12;;;;;;;;;11.50;11.00;;;;;14.92;22.38;99229.13;6078106;28;97648;-68
2022/01/07 07:47:16;;;;;;;;;15.20;13.40;;;;;15.96;21.35;99231.31;6085874;28;96904;-70
2022/01/07 07:50:19;;;;;;;;;17.00;13.00;;;;;16.80;20.31;99239.31;6084484;28;97558;-68
2022/01/07 07:53:22;;;;;;;;;14.60;12.60;;;;;17.58;19.71;99244.28;6091190;28;97920;-67
2022/01/07 07:56:26;;;;;;;;;15.00;14.40;;;;;18.25;18.75;99242.91;6090779;28;96711;-67
2022/01/07 07:59:31;;;;;;;;;12.60;11.60;;;;;18.92;17.66;99240.31;6091080;28;97007;-70
2022/01/07 08:02:34;;;;;;;;;15.20;14.00;;;;;19.52;17.20;99239.69;6087920;28;97961;-70
2022/01/07 08:05:38;;;;;;;;;14.00;12.00;;;;;20.00;16.34;99246.53;6092147;28;97071;-70
2022/01/07 08:08:41;;;;;;;;;16.00;14.00;;;;;20.60;15.96;99237.44;6073696;28;98456;-68
2022/01/07 08:11:53;;;;;;;;;14.40;13.00;;;;;20.88;15.34;99238.72;6091977;28;97723;-70
2022/01/07 08:18:20;;;;;;;;;15.50;13.50;;;;;21.92;14.59;99243.06;6108182;28;97437;-69
2022/01/07 08:21:26;;;;;;;;;14.80;13.00;;;;;22.30;14.04;99233.13;6089009;28;98979;-68
2022/01/07 08:24:30;;;;;;;;;13.00;12.00;;;;;22.62;13.85;99229.78;6092533;28;96726;-68
2022/01/07 08:27:33;;;;;;;;;14.40;13.40;;;;;22.97;13.68;99225.00;6106817;28;97127;-70
2022/01/07 08:30:59;;;;;;;;;15.00;13.00;;;;;23.24;13.50;99220.47;6088952;28;97856;-67
2022/01/07 08:37:25;;;;;;;;;15.20;13.20;;;;;23.57;13.36;99226.09;6092393;28;97272;-70
2022/01/07 08:40:28;;;;;;;;;13.60;12.60;;;;;23.51;13.09;99208.00;6089760;28;98079;-68
2022/01/07 08:43:31;;;;;;;;;15.60;14.00;;;;;23.82;13.19;99225.69;6098335;28;96749;-70
2022/01/07 08:46:36;;;;;;;;;14.60;14.00;;;;;24.11;13.13;99230.97;6090691;28;96628;-70
2022/01/07 08:49:40;;;;;;;;;12.33;12.00;;;;;24.15;12.77;99230.06;6091939;28;97464;-67
2022/01/07 08:52:44;;;;;;;;;14.60;13.00;;;;;24.38;12.57;99238.53;6086674;28;98996;-70
2022/01/07 08:55:48;;;;;;;;;13.80;12.80;;;;;24.56;12.79;99243.97;6090953;28;97817;-69
2022/01/07 08:58:52;;;;;;;;;15.75;12.00;;;;;24.78;12.47;99232.22;6089764;28;96707;-71
2022/01/07 09:01:57;;;;;;;;;11.00;11.00;;;;;24.92;12.03;99224.78;6082860;28;97140;-67
2022/01/07 09:05:00;;;;;;;;;13.00;12.00;;;;;24.86;11.47;99225.19;6089536;28;97468;-71
2022/01/07 09:08:06;;;;;;;;;10.00;9.00;;;;;25.09;11.73;99217.84;6090476;28;96684;-68
2022/01/07 09:11:10;;;;;;;;;14.00;13.00;;;;;25.30;11.74;99219.84;6085521;28;97510;-70
2022/01/07 09:14:13;;;;;;;;;15.40;13.00;;;;;25.08;11.11;99224.47;6092268;28;96683;-68
2022/01/07 09:17:18;;;;;;;;;14.00;12.25;;;;;25.06;11.42;99216.53;6090084;28;97912;-67
2022/01/07 09:20:22;;;;;;;;;12.00;11.00;;;;;25.08;11.67;99221.72;6089636;28;96982;-71
2022/01/07 09:23:25;;;;;;;;;15.60;12.80;;;;;25.14;11.49;99217.72;6088998;28;96603;-69
2022/01/07 09:26:28;;;;;;;;;16.50;15.50;;;;;25.46;11.71;99201.78;6088617;28;96999;-68
2022/01/07 09:29:32;;;;;;;;;17.00;16.00;;;;;25.45;11.50;99204.88;6091855;28;97481;-71
2022/01/07 09:32:37;;;;;;;;;18.00;15.00;;;;;25.61;11.53;99211.69;6083570;28;96718;-69
2022/01/07 09:35:40;;;;;;;;;14.40;13.40;;;;;25.41;10.99;99198.38;6056116;28;97197;-72
2022/01/07 09:38:43;;;;;;;;;15.00;13.00;;;;;25.29;11.06;99196.13;6066549;28;97583;-71
2022/01/07 09:41:46;;;;;;;;;14.60;13.00;;;;;25.25;11.33;99202.59;6067900;28;97395;-69
2022/01/07 09:44:50;;;;;;;;;15.00;14.80;;;;;25.44;11.00;99192.22;6052466;28;96553;-69
2022/01/07 09:47:55;;;;;;;;;11.80;11.80;;;;;25.76;10.83;99197.53;6063996;28;98144;-73
2022/01/07 09:50:59;;;;;;;;;15.00;13.00;;;;;25.98;10.60;99190.38;6027797;28;98465;-69
2022/01/07 09:54:03;;;;;;;;;12.40;11.00;;;;;26.09;10.95;99187.03;6053059;28;99661;-71
2022/01/07 09:57:08;;;;;;;;;13.00;12.00;;;;;26.19;10.94;99183.97;6070694;28;97464;-69
2022/01/07 10:00:13;;;;;;;;;13.60;11.60;;;;;26.31;10.45;99186.19;6079498;28;96894;-71
2022/01/07 10:03:19;;;;;;;;;10.60;10.00;;;;;26.20;10.22;99188.38;6052987;28;96776;-68
2022/01/07 10:06:25;;;;;;;;;12.25;9.25;;;;;25.92;10.17;99164.81;6067511;28;96768;-69
2022/01/07 10:09:29;;;;;;;;;12.60;11.00;;;;;25.77;10.43;99188.09;6071891;28;97615;-70
2022/01/07 10:12:48;;;;;;;;;9.33;9.33;;;;;25.60;10.84;99179.72;6073593;28;97452;-71
2022/01/07 10:15:52;;;;;;;;;11.60;10.00;;;;;25.69;10.80;99174.25;6064529;28;97570;-72
2022/01/07 10:19:34;;;;;;;;;10.80;9.00;;;;;25.87;10.35;99174.03;6078551;28;99428;-69
2022/01/07 10:22:53;;;;;;;;;9.80;9.80;;;;;25.71;10.41;99175.56;6073991;28;97444;-69
2022/01/07 10:25:58;;;;;;;;;10.60;10.60;;;;;25.71;10.83;99170.03;6076535;28;97339;-72
2022/01/07 10:29:01;;;;;;;;;11.20;10.20;;;;;25.54;10.35;99164.34;6081170;28;97534;-71
2022/01/07 10:32:25;;;;;;;;;14.00;12.00;;;;;25.51;10.08;99158.66;6090378;28;96788;-68
2022/01/07 10:35:30;;;;;;;;;14.00;12.00;;;;;25.36;10.52;99152.34;6089368;28;96849;-72
2022/01/07 10:38:35;;;;;;;;;14.40;11.40;;;;;25.39;10.72;99154.50;6088665;28;98062;-70
2022/01/07 10:41:40;;;;;;;;;13.00;11.50;;;;;25.38;10.49;99154.81;6085330;28;96847;-69
2022/01/07 10:44:58;;;;;;;;;9.00;8.00;;;;;25.56;10.21;99147.53;6087720;28;98552;-72
2022/01/07 10:48:01;;;;;;;;;10.00;9.60;;;;;25.65;10.31;99151.97;6085030;28;97998;-71
2022/01/07 10:51:09;;;;;;;;;9.60;8.00;;;;;25.56;9.97;99142.78;6084704;28;96636;-71
2022/01/07 10:54:19;;;;;;;;;12.00;10.00;;;;;25.60;10.33;99146.59;6097792;28;97728;-70
2022/01/07 10:57:37;;;;;;;;;11.00;10.00;;;;;25.66;10.06;99150.81;6066236;28;97512;-69
2022/01/07 11:00:40;;;;;;;;;10.00;9.00;;;;;25.32;9.62;99137.53;6075103;28;97215;-68
2022/01/07 11:03:46;;;;;;;;;9.00;7.50;;;;;24.72;9.97;99130.63;6100023;28;97296;-69
2022/01/07 11:06:51;;;;;;;;;12.25;9.75;;;;;24.67;10.56;99126.03;6088067;28;97215;-72
2022/01/07 11:09:56;;;;;;;;;11.75;11.00;;;;;24.91;10.79;99118.38;6089073;28;97391;-70
2022/01/07 11:13:01;;;;;;;;;12.00;10.20;;;;;24.93;9.82;99107.00;6086984;28;97086;-70
2022/01/07 11:16:06;;;;;;;;;9.60;8.60;;;;;24.72;9.56;99109.41;6089364;28;97356;-69
2022/01/07 11:19:10;;;;;;;;;10.00;9.00;;;;;24.48;9.57;99100.53;6104128;28;97522;-69
2022/01/07 11:22:15;;;;;;;;;10.00;9.00;;;;;24.31;9.43;99106.66;6089407;28;98378;-71
2022/01/07 11:25:19;;;;;;;;;8.25;7.00;;;;;23.80;9.97;99105.97;6103660;28;96443;-70
2022/01/07 11:28:22;;;;;;;;;10.00;8.00;;;;;23.44;9.99;99100.22;6098402;28;96563;-69
2022/01/07 11:31:25;;;;;;;;;10.00;9.00;;;;;23.46;9.91;99098.84;6093394;28;98067;-69
2022/01/07 11:34:29;;;;;;;;;9.00;8.00;;;;;23.41;10.29;99093.38;6093598;28;97333;-72
2022/01/07 11:37:39;;;;;;;;;8.60;8.00;;;;;23.20;9.65;99087.41;6096549;28;96805;-70
2022/01/07 11:40:46;;;;;;;;;9.60;8.80;;;;;23.23;10.37;99078.56;6096299;28;97507;-73
2022/01/07 11:43:51;;;;;;;;;10.00;9.00;;;;;22.99;10.26;99079.75;6082544;28;97525;-70
2022/01/07 11:47:21;;;;;;;;;10.00;10.00;;;;;22.59;10.14;99086.63;6095285;28;98162;-70
2022/01/07 11:50:24;;;;;;;;;9.50;8.00;;;;;22.46;9.99;99072.50;6092349;28;97594;-68
2022/01/07 11:54:03;;;;;;;;;8.00;7.00;;;;;22.23;10.28;99062.38;6092996;28;97629;-69
2022/01/07 11:57:11;;;;;;;;;8.80;8.00;;;;;22.00;10.95;99064.00;6094398;28;97461;-72
2022/01/07 12:00:15;;;;;;;;;11.00;10.75;;;;;22.23;11.19;99054.13;6092844;28;98391;-69
2022/01/07 12:03:36;;;;;;;;;9.00;8.00;;;;;22.44;10.75;99047.25;6093358;28;97066;-70
2022/01/07 12:06:48;;;;;;;;;9.67;8.67;;;;;22.43;10.75;99033.84;6088058;28;97115;-71
2022/01/07 12:10:12;;;;;;;;;9.40;9.00;;;;;22.23;10.61;99039.59;6088939;28;97800;-71
2022/01/07 12:13:15;;;;;;;;;10.60;8.60;;;;;22.18;10.33;99047.88;6091820;28;97392;-69
2022/01/07 12:16:19;;;;;;;;;12.20;11.80;;;;;22.12;11.26;99041.63;6077837;28;99550;-69
2022/01/07 12:20:19;;;;;;;;;11.50;9.00;;;;;21.80;10.97;99039.50;6091320;28;98943;-69
2022/01/07 12:23:23;;;;;;;;;10.00;10.00;;;;;21.46;11.07;99041.47;6088513;28;96743;-71
2022/01/07 12:26:27;;;;;;;;;12.00;10.60;;;;;21.64;11.14;99035.28;6091920;28;97606;-69
2022/01/07 12:29:32;;;;;;;;;11.60;8.60;;;;;21.22;11.01;99037.88;6103124;28;96809;-70
2022/01/07 12:32:38;;;;;;;;;9.40;8.40;;;;;21.14;11.03;99031.91;6077752;28;97435;-71
2022/01/07 12:35:42;;;;;;;;;10.00;8.00;;;;;21.38;11.12;99040.19;6087684;28;97745;-71
2022/01/07 12:38:58;;;;;;;;;8.25;8.00;;;;;21.15;11.22;99024.50;6090574;28;97161;-68
2022/01/07 12:42:04;;;;;;;;;11.00;10.00;;;;;20.47;11.09;99037.28;6088036;28;97458;-69
2022/01/07 12:45:13;;;;;;;;;10.60;8.00;;;;;19.53;12.18;99029.94;6087587;28;97239;-70
2022/01/07 12:48:16;;;;;;;;;10.80;9.80;;;;;18.65;12.38;99029.38;6087844;28;97427;-71
2022/01/07 12:51:22;;;;;;;;;9.00;8.75;;;;;17.76;13.10;99038.56;6076166;28;97316;-71
2022/01/07 12:54:25;;;;;;;;;10.00;8.60;;;;;17.13;13.59;99028.56;6050668;28;97911;-68
2022/01/07 12:57:32;;;;;;;;;10.00;8.00;;;;;16.57;14.31;99040.81;6090159;28;97060;-70
2022/01/07 13:00:37;;;;;;;;;11.60;10.00;;;;;15.96;14.60;99038.25;6090513;28;96607;-68
2022/01/07 13:03:41;;;;;;;;;11.00;9.00;;;;;15.42;15.28;99033.66;6091827;28;96798;-68
2022/01/07 13:06:46;;;;;;;;;12.00;10.40;;;;;14.92;15.46;99034.50;6088197;28;98193;-68
2022/01/07 13:10:00;;;;;;;;;12.00;11.00;;;;;14.31;16.12;99032.56;6063802;28;98430;-67
2022/01/07 13:13:07;;;;;;;;;11.00;10.00;;;;;13.70;16.68;99030.50;6090161;28;98148;-67
2022/01/07 13:16:10;;;;;;;;;13.60;11.00;;;;;13.20;17.19;99035.56;6060850;28;97282;-71
2022/01/07 13:19:14;;;;;;;;;11.00;10.60;;;;;12.81;18.10;99039.72;6090829;28;97079;-71
2022/01/07 13:22:19;;;;;;;;;10.80;10.80;;;;;12.49;18.02;99031.91;6086874;28;96915;-68
2022/01/07 13:25:22;;;;;;;;;12.00;11.00;;;;;12.15;18.45;99029.91;6091618;28;96763;-66
2022/01/07 13:28:36;;;;;;;;;12.00;11.00;;;;;11.88;18.75;99029.41;6076191;28;96818;-69
2022/01/07 13:31:42;;;;;;;;;11.00;10.00;;;;;11.70;18.67;99034.78;6089146;28;97421;-69
2022/01/07 13:34:45;;;;;;;;;12.00;10.00;;;;;11.59;20.38;99030.94;6089826;28;96673;-69
2022/01/07 13:37:48;;;;;;;;;11.75;10.25;;;;;11.23;20.79;98993.97;6087130;28;96792;-70
2022/01/07 13:41:06;;;;;;;;;13.80;11.00;;;;;11.33;21.13;99033.94;6086967;28;96997;-69
2022/01/07 13:44:11;;;;;;;;;12.00;10.00;;;;;11.12;20.77;99024.38;6086481;28;97880;-70
2022/01/07 13:47:20;;;;;;;;;15.25;14.00;;;;;10.96;21.63;99030.31;6071601;28;98358;-70
2022/01/07 13:50:29;;;;;;;;;11.60;11.00;;;;;10.78;21.03;99023.00;6086888;28;96772;-69
2022/01/07 13:53:32;;;;;;;;;13.00;11.00;;;;;10.63;21.51;99018.97;6085573;28;97764;-66
2022/01/07 13:56:36;;;;;;;;;12.80;11.20;;;;;10.55;23.23;99022.78;6089127;28;96408;-66
2022/01/07 13:59:46;;;;;;;;;16.00;14.60;;;;;10.35;22.91;99019.38;6089007;28;97594;-69
2022/01/07 14:02:50;;;;;;;;;15.75;14.50;;;;;10.18;21.84;99019.06;6099329;28;98991;-69
2022/01/07 14:06:01;;;;;;;;;16.20;13.20;;;;;10.00;22.18;99019.75;6089894;28;97020;-68
2022/01/07 14:09:12;;;;;;;;;16.60;15.00;;;;;9.97;22.94;99006.69;6084493;28;96782;-70
2022/01/07 14:12:24;;;;;;;;;15.40;13.40;;;;;9.96;23.09;99009.63;6089681;28;97493;-67
2022/01/07 14:15:31;;;;;;;;;19.40;15.00;;;;;9.89;23.98;99006.13;6072575;28;98771;-68
2022/01/07 14:18:36;;;;;;;;;15.00;14.00;;;;;9.87;23.77;99000.94;6101168;28;97221;-68
2022/01/07 14:21:39;;;;;;;;;15.00;14.00;;;;;9.92;23.99;98995.75;6084445;28;96910;-69
2022/01/07 14:24:42;;;;;;;;;15.00;14.00;;;;;10.08;22.95;98999.81;6085073;28;96835;-66
2022/01/07 14:27:47;;;;;;;;;16.00;14.75;;;;;10.19;22.28;98987.56;6083037;28;99530;-68
2022/01/07 14:30:51;;;;;;;;;14.60;14.60;;;;;10.31;22.93;98989.34;6101473;28;96640;-65